Terminal Aerodrome Forecast
Issued by NWS Cleveland, OH

Home | Current Version | Previous Version | Graphics & Text | Print | Product List | Glossary On
Versions: 1 2 3 4 5 6 7 8 9 10 11 12 13 14 15 16
000
FTUS41 KCLE 281726
TAFERI
TAF
KERI 281726Z 2818/2918 06014G22KT P6SM VCSH SCT035 OVC050
      TEMPO 2818/2821 5SM -SHRA BR SCT025 OVC035
     FM282100 05010KT P6SM OVC015
     FM291200 04008KT P6SM BKN008 OVC015=

USA.gov is the U.S. government's official web portal to all federal, state and local government web resources and services.